sensor_id;sensor_type;location;lat;lon;timestamp;temperature;humidity
27781;DHT22;15167;1.318;103.762;2023-04-03T00:00:57;25.30;99.90
27781;DHT22;15167;1.318;103.762;2023-04-03T00:03:23;25.20;99.90
27781;DHT22;15167;1.318;103.762;2023-04-03T00:05:49;25.10;99.90
27781;DHT22;15167;1.318;103.762;2023-04-03T00:08:16;25.10;99.90
27781;DHT22;15167;1.318;103.762;2023-04-03T00:10:42;25.10;99.90
27781;DHT22;15167;1.318;103.762;2023-04-03T00:13:09;24.70;99.90
27781;DHT22;15167;1.318;103.762;2023-04-03T00:15:35;24.40;99.90
27781;DHT22;15167;1.318;103.762;2023-04-03T00:18:02;24.40;99.90
27781;DHT22;15167;1.318;103.762;2023-04-03T00:20:29;24.40;99.90
27781;DHT22;15167;1.318;103.762;2023-04-03T00:22:55;24.40;99.90
27781;DHT22;15167;1.318;103.762;2023-04-03T00:25:21;24.40;99.90
27781;DHT22;15167;1.318;103.762;2023-04-03T00:27:47;24.40;99.90
27781;DHT22;15167;1.318;103.762;2023-04-03T00:30:14;24.30;99.90
27781;DHT22;15167;1.318;103.762;2023-04-03T00:32:40;24.30;99.90
27781;DHT22;15167;1.318;103.762;2023-04-03T00:35:07;24.40;99.90
27781;DHT22;15167;1.318;103.762;2023-04-03T00:37:33;24.30;99.90
27781;DHT22;15167;1.318;103.762;2023-04-03T00:39:59;24.30;99.90
27781;DHT22;15167;1.318;103.762;2023-04-03T00:42:25;24.30;99.90
27781;DHT22;15167;1.318;103.762;2023-04-03T00:47:26;24.00;99.90
27781;DHT22;15167;1.318;103.762;2023-04-03T00:49:52;23.90;99.90
27781;DHT22;15167;1.318;103.762;2023-04-03T00:52:20;23.40;99.90
27781;DHT22;15167;1.318;103.762;2023-04-03T00:54:47;23.40;99.90
27781;DHT22;15167;1.318;103.762;2023-04-03T00:57:14;23.40;99.90
27781;DHT22;15167;1.318;103.762;2023-04-03T00:59:43;23.60;99.90
27781;DHT22;15167;1.318;103.762;2023-04-03T01:02:09;23.70;99.90
27781;DHT22;15167;1.318;103.762;2023-04-03T01:04:37;23.80;99.90
27781;DHT22;15167;1.318;103.762;2023-04-03T01:07:08;24.00;99.90
27781;DHT22;15167;1.318;103.762;2023-04-03T01:09:35;24.10;99.90
27781;DHT22;15167;1.318;103.762;2023-04-03T01:14:44;24.30;99.90
27781;DHT22;15167;1.318;103.762;2023-04-03T01:17:28;24.40;99.90
27781;DHT22;15167;1.318;103.762;2023-04-03T01:22:45;24.60;99.90
27781;DHT22;15167;1.318;103.762;2023-04-03T01:25:14;24.80;99.90
27781;DHT22;15167;1.318;103.762;2023-04-03T01:27:40;24.80;99.90
27781;DHT22;15167;1.318;103.762;2023-04-03T01:30:06;25.00;99.90
27781;DHT22;15167;1.318;103.762;2023-04-03T01:32:33;25.10;99.90
27781;DHT22;15167;1.318;103.762;2023-04-03T01:34:59;25.10;99.90
27781;DHT22;15167;1.318;103.762;2023-04-03T01:37:25;25.10;99.90
27781;DHT22;15167;1.318;103.762;2023-04-03T01:39:51;25.10;99.90
27781;DHT22;15167;1.318;103.762;2023-04-03T01:42:17;25.10;99.90
27781;DHT22;15167;1.318;103.762;2023-04-03T01:44:43;25.10;99.90
27781;DHT22;15167;1.318;103.762;2023-04-03T01:47:10;25.20;99.90
27781;DHT22;15167;1.318;103.762;2023-04-03T01:49:36;25.10;99.90
27781;DHT22;15167;1.318;103.762;2023-04-03T01:52:03;25.20;99.90
27781;DHT22;15167;1.318;103.762;2023-04-03T01:54:29;25.20;99.90
27781;DHT22;15167;1.318;103.762;2023-04-03T01:56:55;25.10;99.90
27781;DHT22;15167;1.318;103.762;2023-04-03T01:59:21;25.10;99.90
27781;DHT22;15167;1.318;103.762;2023-04-03T02:01:47;25.10;99.90
27781;DHT22;15167;1.318;103.762;2023-04-03T02:04:13;25.10;99.90
27781;DHT22;15167;1.318;103.762;2023-04-03T02:06:39;25.20;99.90
27781;DHT22;15167;1.318;103.762;2023-04-03T02:09:06;25.20;99.90
27781;DHT22;15167;1.318;103.762;2023-04-03T02:11:32;25.20;99.90
27781;DHT22;15167;1.318;103.762;2023-04-03T02:13:58;25.20;99.90
27781;DHT22;15167;1.318;103.762;2023-04-03T02:16:24;25.30;99.90
27781;DHT22;15167;1.318;103.762;2023-04-03T02:18:50;25.30;99.90
27781;DHT22;15167;1.318;103.762;2023-04-03T02:21:17;25.30;99.90
27781;DHT22;15167;1.318;103.762;2023-04-03T02:23:43;25.40;99.90
27781;DHT22;15167;1.318;103.762;2023-04-03T02:26:10;25.40;99.90
27781;DHT22;15167;1.318;103.762;2023-04-03T02:28:37;25.40;99.90
27781;DHT22;15167;1.318;103.762;2023-04-03T02:31:04;25.30;99.90
27781;DHT22;15167;1.318;103.762;2023-04-03T02:33:32;25.30;99.90
27781;DHT22;15167;1.318;103.762;2023-04-03T02:35:58;25.30;99.90
27781;DHT22;15167;1.318;103.762;2023-04-03T02:38:24;25.40;99.90
27781;DHT22;15167;1.318;103.762;2023-04-03T02:40:51;25.40;99.90
27781;DHT22;15167;1.318;103.762;2023-04-03T02:43:17;25.30;99.90
27781;DHT22;15167;1.318;103.762;2023-04-03T02:45:44;25.30;99.90
27781;DHT22;15167;1.318;103.762;2023-04-03T02:48:10;25.40;99.90
27781;DHT22;15167;1.318;103.762;2023-04-03T02:50:36;25.30;99.90
27781;DHT22;15167;1.318;103.762;2023-04-03T02:53:02;25.30;99.90
27781;DHT22;15167;1.318;103.762;2023-04-03T02:55:28;25.30;99.90
27781;DHT22;15167;1.318;103.762;2023-04-03T02:57:54;25.30;99.90
27781;DHT22;15167;1.318;103.762;2023-04-03T03:00:20;25.30;99.90
27781;DHT22;15167;1.318;103.762;2023-04-03T03:02:48;25.30;99.90
27781;DHT22;15167;1.318;103.762;2023-04-03T03:05:14;25.30;99.90
27781;DHT22;15167;1.318;103.762;2023-04-03T03:07:40;25.30;99.90
27781;DHT22;15167;1.318;103.762;2023-04-03T03:10:06;25.40;99.90
27781;DHT22;15167;1.318;103.762;2023-04-03T03:12:33;25.40;99.90
27781;DHT22;15167;1.318;103.762;2023-04-03T03:14:59;25.50;99.90
27781;DHT22;15167;1.318;103.762;2023-04-03T03:17:25;25.50;99.90
27781;DHT22;15167;1.318;103.762;2023-04-03T03:19:51;25.50;99.90
27781;DHT22;15167;1.318;103.762;2023-04-03T03:22:18;25.40;99.90
27781;DHT22;15167;1.318;103.762;2023-04-03T03:24:44;25.50;99.90
27781;DHT22;15167;1.318;103.762;2023-04-03T03:27:10;25.50;99.90
27781;DHT22;15167;1.318;103.762;2023-04-03T03:29:37;25.50;99.90
27781;DHT22;15167;1.318;103.762;2023-04-03T03:32:04;25.50;99.90
27781;DHT22;15167;1.318;103.762;2023-04-03T03:34:30;25.60;99.90
27781;DHT22;15167;1.318;103.762;2023-04-03T03:36:56;25.70;99.90
27781;DHT22;15167;1.318;103.762;2023-04-03T03:39:22;25.70;99.90
27781;DHT22;15167;1.318;103.762;2023-04-03T03:41:48;25.70;99.90
27781;DHT22;15167;1.318;103.762;2023-04-03T03:44:15;25.80;99.90
27781;DHT22;15167;1.318;103.762;2023-04-03T03:46:41;25.90;99.90
27781;DHT22;15167;1.318;103.762;2023-04-03T03:49:07;26.00;99.90
27781;DHT22;15167;1.318;103.762;2023-04-03T03:51:33;26.00;99.90
27781;DHT22;15167;1.318;103.762;2023-04-03T03:53:59;26.10;99.90
27781;DHT22;15167;1.318;103.762;2023-04-03T03:56:25;26.00;99.90
27781;DHT22;15167;1.318;103.762;2023-04-03T03:58:52;26.10;57.40
27781;DHT22;15167;1.318;103.762;2023-04-03T04:01:18;26.10;60.20
27781;DHT22;15167;1.318;103.762;2023-04-03T04:03:44;26.30;62.30
27781;DHT22;15167;1.318;103.762;2023-04-03T04:06:10;26.30;66.40
27781;DHT22;15167;1.318;103.762;2023-04-03T04:08:36;26.00;99.90
27781;DHT22;15167;1.318;103.762;2023-04-03T04:11:02;26.00;99.90
27781;DHT22;15167;1.318;103.762;2023-04-03T04:13:28;25.90;99.90
27781;DHT22;15167;1.318;103.762;2023-04-03T04:15:55;25.90;99.90
27781;DHT22;15167;1.318;103.762;2023-04-03T04:18:21;26.00;99.90
27781;DHT22;15167;1.318;103.762;2023-04-03T04:20:48;25.90;99.90
27781;DHT22;15167;1.318;103.762;2023-04-03T04:23:14;26.00;99.90
27781;DHT22;15167;1.318;103.762;2023-04-03T04:25:40;26.10;99.90
27781;DHT22;15167;1.318;103.762;2023-04-03T04:28:06;26.10;99.90
27781;DHT22;15167;1.318;103.762;2023-04-03T04:30:32;26.20;99.90
27781;DHT22;15167;1.318;103.762;2023-04-03T04:32:58;26.30;99.90
27781;DHT22;15167;1.318;103.762;2023-04-03T04:35:25;26.30;99.90
27781;DHT22;15167;1.318;103.762;2023-04-03T04:37:51;26.40;99.90
27781;DHT22;15167;1.318;103.762;2023-04-03T04:40:17;26.40;99.90
27781;DHT22;15167;1.318;103.762;2023-04-03T04:42:44;26.40;99.90
27781;DHT22;15167;1.318;103.762;2023-04-03T04:45:10;26.40;92.50
27781;DHT22;15167;1.318;103.762;2023-04-03T04:47:36;26.50;93.70
27781;DHT22;15167;1.318;103.762;2023-04-03T04:50:02;26.60;26.00
27781;DHT22;15167;1.318;103.762;2023-04-03T04:52:28;26.70;42.40
27781;DHT22;15167;1.318;103.762;2023-04-03T04:54:55;26.70;28.30
27781;DHT22;15167;1.318;103.762;2023-04-03T04:57:21;26.80;64.40
27781;DHT22;15167;1.318;103.762;2023-04-03T04:59:47;26.80;80.60
27781;DHT22;15167;1.318;103.762;2023-04-03T05:02:13;26.80;86.70
27781;DHT22;15167;1.318;103.762;2023-04-03T05:04:40;26.80;83.70
27781;DHT22;15167;1.318;103.762;2023-04-03T05:07:06;26.80;83.80
27781;DHT22;15167;1.318;103.762;2023-04-03T05:09:32;26.80;92.20
27781;DHT22;15167;1.318;103.762;2023-04-03T05:11:58;26.90;86.60
27781;DHT22;15167;1.318;103.762;2023-04-03T05:14:24;26.90;98.10
27781;DHT22;15167;1.318;103.762;2023-04-03T05:16:50;26.90;66.40
27781;DHT22;15167;1.318;103.762;2023-04-03T05:19:20;27.00;91.20
27781;DHT22;15167;1.318;103.762;2023-04-03T05:21:46;27.00;64.50
27781;DHT22;15167;1.318;103.762;2023-04-03T05:24:12;27.00;66.30
27781;DHT22;15167;1.318;103.762;2023-04-03T05:26:38;27.00;49.20
27781;DHT22;15167;1.318;103.762;2023-04-03T05:29:05;27.10;41.30
27781;DHT22;15167;1.318;103.762;2023-04-03T05:31:31;27.10;26.70
27781;DHT22;15167;1.318;103.762;2023-04-03T05:33:57;27.20;16.90
27781;DHT22;15167;1.318;103.762;2023-04-03T05:36:23;27.20;13.70
27781;DHT22;15167;1.318;103.762;2023-04-03T05:38:51;26.50;1.00
27781;DHT22;15167;1.318;103.762;2023-04-03T05:41:17;27.30;1.00
27781;DHT22;15167;1.318;103.762;2023-04-03T05:43:43;27.40;1.50
27781;DHT22;15167;1.318;103.762;2023-04-03T05:46:10;27.50;28.00
27781;DHT22;15167;1.318;103.762;2023-04-03T05:48:37;27.50;30.80
27781;DHT22;15167;1.318;103.762;2023-04-03T05:51:03;27.50;27.80
27781;DHT22;15167;1.318;103.762;2023-04-03T05:53:30;27.50;24.90
27781;DHT22;15167;1.318;103.762;2023-04-03T05:55:57;27.60;21.40
27781;DHT22;15167;1.318;103.762;2023-04-03T05:58:23;27.50;1.00
27781;DHT22;15167;1.318;103.762;2023-04-03T06:00:49;27.50;1.00
27781;DHT22;15167;1.318;103.762;2023-04-03T06:03:15;27.60;1.00
27781;DHT22;15167;1.318;103.762;2023-04-03T06:05:42;27.60;1.00
27781;DHT22;15167;1.318;103.762;2023-04-03T06:08:08;27.60;16.60
27781;DHT22;15167;1.318;103.762;2023-04-03T06:10:34;27.70;25.00
27781;DHT22;15167;1.318;103.762;2023-04-03T06:13:01;27.80;1.30
27781;DHT22;15167;1.318;103.762;2023-04-03T06:15:28;27.90;1.00
27781;DHT22;15167;1.318;103.762;2023-04-03T06:17:54;27.80;1.00
27781;DHT22;15167;1.318;103.762;2023-04-03T06:20:20;27.70;1.00
27781;DHT22;15167;1.318;103.762;2023-04-03T06:22:47;27.70;1.00
27781;DHT22;15167;1.318;103.762;2023-04-03T06:25:13;27.60;1.00
27781;DHT22;15167;1.318;103.762;2023-04-03T06:27:40;27.50;1.00
27781;DHT22;15167;1.318;103.762;2023-04-03T06:30:06;27.50;1.00
27781;DHT22;15167;1.318;103.762;2023-04-03T06:32:33;27.60;1.00
27781;DHT22;15167;1.318;103.762;2023-04-03T06:34:59;27.60;1.00
27781;DHT22;15167;1.318;103.762;2023-04-03T06:37:26;27.70;1.00
27781;DHT22;15167;1.318;103.762;2023-04-03T06:39:53;27.80;1.00
27781;DHT22;15167;1.318;103.762;2023-04-03T06:42:20;27.80;1.00
27781;DHT22;15167;1.318;103.762;2023-04-03T06:44:46;27.80;1.00
27781;DHT22;15167;1.318;103.762;2023-04-03T06:47:13;27.90;1.00
27781;DHT22;15167;1.318;103.762;2023-04-03T06:49:39;28.00;1.00
27781;DHT22;15167;1.318;103.762;2023-04-03T06:52:06;28.00;1.00
27781;DHT22;15167;1.318;103.762;2023-04-03T06:54:33;28.00;1.00
27781;DHT22;15167;1.318;103.762;2023-04-03T06:56:59;28.10;1.00
27781;DHT22;15167;1.318;103.762;2023-04-03T06:59:25;28.10;1.00
27781;DHT22;15167;1.318;103.762;2023-04-03T07:01:51;28.20;1.00
27781;DHT22;15167;1.318;103.762;2023-04-03T07:04:17;28.30;1.00
27781;DHT22;15167;1.318;103.762;2023-04-03T07:06:46;28.40;1.00
27781;DHT22;15167;1.318;103.762;2023-04-03T07:09:12;28.30;99.90
27781;DHT22;15167;1.318;103.762;2023-04-03T07:11:39;27.70;1.00
27781;DHT22;15167;1.318;103.762;2023-04-03T07:14:05;27.40;1.00
27781;DHT22;15167;1.318;103.762;2023-04-03T07:16:33;27.20;1.00
27781;DHT22;15167;1.318;103.762;2023-04-03T07:19:00;27.20;15.00
27781;DHT22;15167;1.318;103.762;2023-04-03T07:21:27;27.20;7.60
27781;DHT22;15167;1.318;103.762;2023-04-03T07:23:53;27.10;1.00
27781;DHT22;15167;1.318;103.762;2023-04-03T07:26:19;27.30;11.10
27781;DHT22;15167;1.318;103.762;2023-04-03T07:28:49;27.40;1.00
27781;DHT22;15167;1.318;103.762;2023-04-03T07:31:15;27.50;1.00
27781;DHT22;15167;1.318;103.762;2023-04-03T07:33:42;27.80;1.00
27781;DHT22;15167;1.318;103.762;2023-04-03T07:36:09;27.70;1.00
27781;DHT22;15167;1.318;103.762;2023-04-03T07:38:35;28.00;1.00
27781;DHT22;15167;1.318;103.762;2023-04-03T07:41:02;28.20;1.00
27781;DHT22;15167;1.318;103.762;2023-04-03T07:43:28;28.30;1.00
27781;DHT22;15167;1.318;103.762;2023-04-03T07:45:55;28.50;1.00
27781;DHT22;15167;1.318;103.762;2023-04-03T07:48:21;28.60;99.90
27781;DHT22;15167;1.318;103.762;2023-04-03T07:50:48;28.70;99.90
27781;DHT22;15167;1.318;103.762;2023-04-03T07:53:14;28.70;99.90
27781;DHT22;15167;1.318;103.762;2023-04-03T07:55:40;28.60;99.90
27781;DHT22;15167;1.318;103.762;2023-04-03T07:58:10;28.50;99.90
27781;DHT22;15167;1.318;103.762;2023-04-03T08:00:36;28.70;99.90
27781;DHT22;15167;1.318;103.762;2023-04-03T08:03:04;28.60;99.90
27781;DHT22;15167;1.318;103.762;2023-04-03T08:05:30;28.70;99.90
27781;DHT22;15167;1.318;103.762;2023-04-03T08:07:56;28.60;99.90
27781;DHT22;15167;1.318;103.762;2023-04-03T08:10:22;28.50;99.90
27781;DHT22;15167;1.318;103.762;2023-04-03T08:12:49;28.70;99.90
27781;DHT22;15167;1.318;103.762;2023-04-03T08:15:15;28.70;99.90
27781;DHT22;15167;1.318;103.762;2023-04-03T08:17:41;28.60;99.90
27781;DHT22;15167;1.318;103.762;2023-04-03T08:20:09;28.60;99.90
27781;DHT22;15167;1.318;103.762;2023-04-03T08:22:35;28.50;99.90
27781;DHT22;15167;1.318;103.762;2023-04-03T08:25:01;28.70;99.90
27781;DHT22;15167;1.318;103.762;2023-04-03T08:27:27;28.90;99.90
27781;DHT22;15167;1.318;103.762;2023-04-03T08:29:54;28.60;99.90
27781;DHT22;15167;1.318;103.762;2023-04-03T08:32:20;28.50;99.90
27781;DHT22;15167;1.318;103.762;2023-04-03T08:34:47;28.60;99.90
27781;DHT22;15167;1.318;103.762;2023-04-03T08:37:13;28.70;99.90
27781;DHT22;15167;1.318;103.762;2023-04-03T08:39:42;28.60;99.90
27781;DHT22;15167;1.318;103.762;2023-04-03T08:45:55;28.60;99.90
27781;DHT22;15167;1.318;103.762;2023-04-03T08:48:00;28.80;99.90
27781;DHT22;15167;1.318;103.762;2023-04-03T08:50:31;28.90;99.90
27781;DHT22;15167;1.318;103.762;2023-04-03T08:53:00;29.20;99.90
27781;DHT22;15167;1.318;103.762;2023-04-03T08:55:34;29.50;88.10
27781;DHT22;15167;1.318;103.762;2023-04-03T08:58:06;29.60;68.50
27781;DHT22;15167;1.318;103.762;2023-04-03T09:00:35;29.70;70.50
27781;DHT22;15167;1.318;103.762;2023-04-03T09:03:03;29.90;59.70
27781;DHT22;15167;1.318;103.762;2023-04-03T09:08:00;30.10;13.60
27781;DHT22;15167;1.318;103.762;2023-04-03T09:10:32;30.20;11.50
27781;DHT22;15167;1.318;103.762;2023-04-03T09:13:11;30.00;1.00
27781;DHT22;15167;1.318;103.762;2023-04-03T09:15:39;30.00;26.40
27781;DHT22;15167;1.318;103.762;2023-04-03T09:18:12;30.10;38.00
27781;DHT22;15167;1.318;103.762;2023-04-03T09:20:46;30.20;84.80
27781;DHT22;15167;1.318;103.762;2023-04-03T09:23:14;30.20;99.90
27781;DHT22;15167;1.318;103.762;2023-04-03T09:25:41;30.10;99.90
27781;DHT22;15167;1.318;103.762;2023-04-03T09:28:09;30.00;99.90
27781;DHT22;15167;1.318;103.762;2023-04-03T09:30:36;30.00;99.90
27781;DHT22;15167;1.318;103.762;2023-04-03T09:33:03;30.00;99.90
27781;DHT22;15167;1.318;103.762;2023-04-03T09:35:34;30.00;99.90
27781;DHT22;15167;1.318;103.762;2023-04-03T09:38:01;29.90;99.90
27781;DHT22;15167;1.318;103.762;2023-04-03T09:42:55;29.70;99.90
27781;DHT22;15167;1.318;103.762;2023-04-03T09:45:27;29.70;99.90
27781;DHT22;15167;1.318;103.762;2023-04-03T09:48:26;29.60;99.90
27781;DHT22;15167;1.318;103.762;2023-04-03T09:56:00;29.40;99.90
27781;DHT22;15167;1.318;103.762;2023-04-03T09:58:30;29.30;99.90
27781;DHT22;15167;1.318;103.762;2023-04-03T10:01:00;29.20;99.90
27781;DHT22;15167;1.318;103.762;2023-04-03T10:03:31;29.00;99.90
27781;DHT22;15167;1.318;103.762;2023-04-03T10:05:58;28.90;99.90
27781;DHT22;15167;1.318;103.762;2023-04-03T10:08:26;28.80;99.90
27781;DHT22;15167;1.318;103.762;2023-04-03T10:13:55;28.70;99.90
27781;DHT22;15167;1.318;103.762;2023-04-03T10:17:05;28.60;99.90
27781;DHT22;15167;1.318;103.762;2023-04-03T10:19:14;28.60;99.90
27781;DHT22;15167;1.318;103.762;2023-04-03T10:21:50;28.50;99.90
27781;DHT22;15167;1.318;103.762;2023-04-03T10:24:29;28.40;99.90
27781;DHT22;15167;1.318;103.762;2023-04-03T10:26:59;28.40;99.90
27781;DHT22;15167;1.318;103.762;2023-04-03T10:34:46;28.20;99.90
27781;DHT22;15167;1.318;103.762;2023-04-03T10:37:19;28.10;99.90
27781;DHT22;15167;1.318;103.762;2023-04-03T10:42:55;28.00;99.90
27781;DHT22;15167;1.318;103.762;2023-04-03T10:45:27;27.80;99.90
27781;DHT22;15167;1.318;103.762;2023-04-03T10:47:59;27.70;99.90
27781;DHT22;15167;1.318;103.762;2023-04-03T10:53:28;27.50;99.90
27781;DHT22;15167;1.318;103.762;2023-04-03T10:58:36;27.30;99.90
27781;DHT22;15167;1.318;103.762;2023-04-03T11:01:08;27.30;99.90
27781;DHT22;15167;1.318;103.762;2023-04-03T11:03:36;27.20;99.90
27781;DHT22;15167;1.318;103.762;2023-04-03T11:06:07;27.10;99.90
27781;DHT22;15167;1.318;103.762;2023-04-03T11:08:36;27.00;99.90
27781;DHT22;15167;1.318;103.762;2023-04-03T11:11:15;27.00;99.90
27781;DHT22;15167;1.318;103.762;2023-04-03T11:13:47;26.90;1.00
27781;DHT22;15167;1.318;103.762;2023-04-03T11:16:17;26.90;1.00
27781;DHT22;15167;1.318;103.762;2023-04-03T11:18:51;26.80;1.00
27781;DHT22;15167;1.318;103.762;2023-04-03T11:21:21;26.80;1.00
27781;DHT22;15167;1.318;103.762;2023-04-03T11:23:50;26.80;1.00
27781;DHT22;15167;1.318;103.762;2023-04-03T11:26:21;26.80;1.00
27781;DHT22;15167;1.318;103.762;2023-04-03T11:29:02;26.70;1.00
27781;DHT22;15167;1.318;103.762;2023-04-03T11:31:38;26.80;1.00
27781;DHT22;15167;1.318;103.762;2023-04-03T11:36:51;26.70;1.00
27781;DHT22;15167;1.318;103.762;2023-04-03T11:39:21;26.70;1.00
27781;DHT22;15167;1.318;103.762;2023-04-03T11:41:48;26.70;1.00
27781;DHT22;15167;1.318;103.762;2023-04-03T11:46:57;26.70;1.00
27781;DHT22;15167;1.318;103.762;2023-04-03T11:52:11;26.70;1.00
27781;DHT22;15167;1.318;103.762;2023-04-03T11:59:51;26.60;1.00
27781;DHT22;15167;1.318;103.762;2023-04-03T12:02:35;26.60;1.00
27781;DHT22;15167;1.318;103.762;2023-04-03T12:08:13;26.50;1.00
27781;DHT22;15167;1.318;103.762;2023-04-03T12:10:32;26.50;1.00
27781;DHT22;15167;1.318;103.762;2023-04-03T12:12:58;26.50;1.00
27781;DHT22;15167;1.318;103.762;2023-04-03T12:23:27;26.40;10.20
27781;DHT22;15167;1.318;103.762;2023-04-03T12:25:59;26.40;14.80
27781;DHT22;15167;1.318;103.762;2023-04-03T12:28:26;26.30;18.00
27781;DHT22;15167;1.318;103.762;2023-04-03T12:30:53;26.30;24.30
27781;DHT22;15167;1.318;103.762;2023-04-03T12:33:36;26.30;33.90
27781;DHT22;15167;1.318;103.762;2023-04-03T12:43:46;26.30;69.40
27781;DHT22;15167;1.318;103.762;2023-04-03T12:46:16;26.30;90.00
27781;DHT22;15167;1.318;103.762;2023-04-03T12:51:19;26.20;97.30
27781;DHT22;15167;1.318;103.762;2023-04-03T12:53:46;26.20;99.90
27781;DHT22;15167;1.318;103.762;2023-04-03T12:56:19;26.20;99.90
27781;DHT22;15167;1.318;103.762;2023-04-03T12:58:46;26.10;99.90
27781;DHT22;15167;1.318;103.762;2023-04-03T13:03:40;26.10;99.90
27781;DHT22;15167;1.318;103.762;2023-04-03T13:06:14;26.20;99.90
27781;DHT22;15167;1.318;103.762;2023-04-03T13:08:56;26.20;99.90
27781;DHT22;15167;1.318;103.762;2023-04-03T13:11:24;26.10;88.00
27781;DHT22;15167;1.318;103.762;2023-04-03T13:13:56;26.10;92.00
27781;DHT22;15167;1.318;103.762;2023-04-03T13:16:22;26.10;98.50
27781;DHT22;15167;1.318;103.762;2023-04-03T13:18:54;26.10;99.90
27781;DHT22;15167;1.318;103.762;2023-04-03T13:21:30;26.00;95.40
27781;DHT22;15167;1.318;103.762;2023-04-03T13:23:58;26.10;99.90
27781;DHT22;15167;1.318;103.762;2023-04-03T13:26:26;26.10;83.20
27781;DHT22;15167;1.318;103.762;2023-04-03T13:28:54;26.10;98.60
27781;DHT22;15167;1.318;103.762;2023-04-03T13:31:26;26.10;68.80
27781;DHT22;15167;1.318;103.762;2023-04-03T13:36:20;26.10;97.10
27781;DHT22;15167;1.318;103.762;2023-04-03T13:38:57;26.10;93.20
27781;DHT22;15167;1.318;103.762;2023-04-03T13:41:34;26.10;95.10
27781;DHT22;15167;1.318;103.762;2023-04-03T13:46:44;26.10;95.20
27781;DHT22;15167;1.318;103.762;2023-04-03T13:49:21;26.10;96.10
27781;DHT22;15167;1.318;103.762;2023-04-03T13:51:47;26.10;95.80
27781;DHT22;15167;1.318;103.762;2023-04-03T13:54:21;26.10;95.30
27781;DHT22;15167;1.318;103.762;2023-04-03T13:56:52;26.20;94.80
27781;DHT22;15167;1.318;103.762;2023-04-03T13:59:21;26.20;93.80
27781;DHT22;15167;1.318;103.762;2023-04-03T14:01:52;26.20;96.90
27781;DHT22;15167;1.318;103.762;2023-04-03T14:04:20;26.20;92.70
27781;DHT22;15167;1.318;103.762;2023-04-03T14:06:48;26.20;91.00
27781;DHT22;15167;1.318;103.762;2023-04-03T14:09:15;26.20;90.10
27781;DHT22;15167;1.318;103.762;2023-04-03T14:11:41;26.20;87.20
27781;DHT22;15167;1.318;103.762;2023-04-03T14:14:13;26.20;85.00
27781;DHT22;15167;1.318;103.762;2023-04-03T14:16:40;26.20;88.10
27781;DHT22;15167;1.318;103.762;2023-04-03T14:19:07;26.20;85.60
27781;DHT22;15167;1.318;103.762;2023-04-03T14:21:35;26.20;89.00
27781;DHT22;15167;1.318;103.762;2023-04-03T14:24:01;26.20;87.20
27781;DHT22;15167;1.318;103.762;2023-04-03T14:26:28;26.20;87.40
27781;DHT22;15167;1.318;103.762;2023-04-03T14:28:55;26.20;83.20
27781;DHT22;15167;1.318;103.762;2023-04-03T14:31:21;26.20;80.00
27781;DHT22;15167;1.318;103.762;2023-04-03T14:33:48;26.10;90.20
27781;DHT22;15167;1.318;103.762;2023-04-03T14:36:15;26.20;84.60
27781;DHT22;15167;1.318;103.762;2023-04-03T14:38:42;26.20;85.20
27781;DHT22;15167;1.318;103.762;2023-04-03T14:41:10;26.20;79.10
27781;DHT22;15167;1.318;103.762;2023-04-03T14:43:37;26.20;84.40
27781;DHT22;15167;1.318;103.762;2023-04-03T14:46:04;26.20;84.60
27781;DHT22;15167;1.318;103.762;2023-04-03T14:48:31;26.10;91.00
27781;DHT22;15167;1.318;103.762;2023-04-03T14:51:00;26.20;92.20
27781;DHT22;15167;1.318;103.762;2023-04-03T14:53:26;26.20;93.70
27781;DHT22;15167;1.318;103.762;2023-04-03T14:55:55;26.10;98.00
27781;DHT22;15167;1.318;103.762;2023-04-03T14:58:21;26.10;99.90
27781;DHT22;15167;1.318;103.762;2023-04-03T15:00:47;26.10;99.90
27781;DHT22;15167;1.318;103.762;2023-04-03T15:03:14;26.10;99.90
27781;DHT22;15167;1.318;103.762;2023-04-03T15:05:41;26.10;99.90
27781;DHT22;15167;1.318;103.762;2023-04-03T15:08:11;26.10;99.90
27781;DHT22;15167;1.318;103.762;2023-04-03T15:10:42;26.10;99.90
27781;DHT22;15167;1.318;103.762;2023-04-03T15:13:08;26.10;99.90
27781;DHT22;15167;1.318;103.762;2023-04-03T15:15:36;26.10;99.90
27781;DHT22;15167;1.318;103.762;2023-04-03T15:18:02;26.10;99.90
27781;DHT22;15167;1.318;103.762;2023-04-03T15:20:28;26.20;99.90
27781;DHT22;15167;1.318;103.762;2023-04-03T15:22:56;26.20;99.90
27781;DHT22;15167;1.318;103.762;2023-04-03T15:25:26;26.20;99.90
27781;DHT22;15167;1.318;103.762;2023-04-03T15:27:53;26.20;99.90
27781;DHT22;15167;1.318;103.762;2023-04-03T15:30:19;26.20;99.90
27781;DHT22;15167;1.318;103.762;2023-04-03T15:32:46;26.20;99.90
27781;DHT22;15167;1.318;103.762;2023-04-03T15:35:12;26.20;99.90
27781;DHT22;15167;1.318;103.762;2023-04-03T15:37:38;26.20;99.90
27781;DHT22;15167;1.318;103.762;2023-04-03T15:40:05;26.20;99.90
27781;DHT22;15167;1.318;103.762;2023-04-03T15:42:31;26.20;99.90
27781;DHT22;15167;1.318;103.762;2023-04-03T15:44:58;26.20;99.90
27781;DHT22;15167;1.318;103.762;2023-04-03T15:47:24;26.20;99.90
27781;DHT22;15167;1.318;103.762;2023-04-03T15:49:50;26.30;99.90
27781;DHT22;15167;1.318;103.762;2023-04-03T15:52:16;26.30;99.10
27781;DHT22;15167;1.318;103.762;2023-04-03T15:54:42;26.20;99.90
27781;DHT22;15167;1.318;103.762;2023-04-03T15:57:09;26.20;99.90
27781;DHT22;15167;1.318;103.762;2023-04-03T15:59:35;26.20;99.90
27781;DHT22;15167;1.318;103.762;2023-04-03T16:02:01;26.20;99.90
27781;DHT22;15167;1.318;103.762;2023-04-03T16:04:29;26.20;99.90
27781;DHT22;15167;1.318;103.762;2023-04-03T16:06:55;26.20;99.90
27781;DHT22;15167;1.318;103.762;2023-04-03T16:09:22;26.20;99.90
27781;DHT22;15167;1.318;103.762;2023-04-03T16:11:48;26.10;99.90
27781;DHT22;15167;1.318;103.762;2023-04-03T16:14:14;26.10;99.90
27781;DHT22;15167;1.318;103.762;2023-04-03T16:16:40;26.10;99.90
27781;DHT22;15167;1.318;103.762;2023-04-03T16:19:06;26.10;99.90
27781;DHT22;15167;1.318;103.762;2023-04-03T16:21:32;26.10;99.90
27781;DHT22;15167;1.318;103.762;2023-04-03T16:23:59;26.10;99.90
27781;DHT22;15167;1.318;103.762;2023-04-03T16:26:25;26.00;99.90
27781;DHT22;15167;1.318;103.762;2023-04-03T16:28:52;26.10;99.90
27781;DHT22;15167;1.318;103.762;2023-04-03T16:31:18;26.10;99.90
27781;DHT22;15167;1.318;103.762;2023-04-03T16:33:45;26.10;99.90
27781;DHT22;15167;1.318;103.762;2023-04-03T16:36:11;26.10;99.90
27781;DHT22;15167;1.318;103.762;2023-04-03T16:38:37;26.10;99.90
27781;DHT22;15167;1.318;103.762;2023-04-03T16:41:03;26.10;99.90